createdAt,value
2023-05-05T00:00:36.682Z,0
2023-05-05T00:01:53.624Z,0
2023-05-05T00:03:10.688Z,0
2023-05-05T00:04:27.648Z,0
2023-05-05T00:05:44.625Z,0
2023-05-05T00:07:01.633Z,0
2023-05-05T00:08:18.606Z,0
2023-05-05T00:09:35.664Z,0
2023-05-05T00:10:52.662Z,0
2023-05-05T00:12:09.666Z,0
2023-05-05T00:13:26.633Z,0
2023-05-05T00:14:43.644Z,0
2023-05-05T00:16:00.680Z,0
2023-05-05T00:17:17.686Z,0
2023-05-05T00:18:34.630Z,0
2023-05-05T00:19:51.665Z,0
2023-05-05T00:21:08.699Z,0
2023-05-05T00:22:25.637Z,0
2023-05-05T00:23:42.655Z,0
2023-05-05T00:24:59.680Z,0
2023-05-05T00:26:16.637Z,0
2023-05-05T00:27:33.642Z,0
2023-05-05T00:28:50.641Z,0
2023-05-05T00:30:07.940Z,0
2023-05-05T00:31:24.724Z,0
2023-05-05T00:32:41.742Z,0
2023-05-05T00:33:58.667Z,0
2023-05-05T00:35:15.706Z,0
2023-05-05T00:36:32.767Z,0
2023-05-05T00:37:49.672Z,0
2023-05-05T00:39:06.743Z,0
2023-05-05T00:40:23.672Z,0
2023-05-05T00:41:40.759Z,0
2023-05-05T00:42:57.698Z,0
2023-05-05T00:44:14.689Z,0
2023-05-05T00:45:31.679Z,0
2023-05-05T00:46:48.871Z,0
2023-05-05T00:48:05.747Z,0
2023-05-05T00:49:22.725Z,0
2023-05-05T00:50:39.703Z,0
2023-05-05T00:51:57.333Z,0
2023-05-05T00:53:13.680Z,0
2023-05-05T00:54:30.756Z,0
2023-05-05T00:55:47.704Z,0
2023-05-05T00:57:04.740Z,0
2023-05-05T00:58:21.716Z,0
2023-05-05T00:59:38.745Z,0
2023-05-05T01:00:55.689Z,0
2023-05-05T01:02:13.042Z,0
2023-05-05T01:03:29.780Z,0
2023-05-05T01:04:46.804Z,0
2023-05-05T01:06:03.711Z,0
2023-05-05T01:07:20.719Z,0
2023-05-05T01:08:37.725Z,0
2023-05-05T01:10:15.569Z,0
2023-05-05T01:11:11.709Z,0
2023-05-05T01:12:28.768Z,0
2023-05-05T01:13:45.738Z,0.25
2023-05-05T01:15:02.846Z,0
2023-05-05T01:16:19.746Z,0.15
2023-05-05T01:17:36.856Z,0
2023-05-05T01:18:53.743Z,0
2023-05-05T01:20:10.804Z,0
2023-05-05T01:21:27.751Z,0
2023-05-05T01:22:44.791Z,0
2023-05-05T01:24:01.743Z,0
2023-05-05T01:25:18.737Z,0
2023-05-05T01:26:35.752Z,0
2023-05-05T01:27:52.807Z,0
2023-05-05T01:29:09.741Z,0
2023-05-05T01:30:26.774Z,0
2023-05-05T01:31:43.819Z,0
2023-05-05T01:33:00.916Z,0
2023-05-05T01:34:17.842Z,0
2023-05-05T01:35:34.755Z,0
2023-05-05T01:36:51.743Z,0
2023-05-05T01:38:08.786Z,0.17
2023-05-05T01:39:25.781Z,0.24
2023-05-05T01:40:42.750Z,0.1
2023-05-05T01:41:59.835Z,0.1
2023-05-05T01:43:16.810Z,0.14
2023-05-05T01:44:33.803Z,0
2023-05-05T01:45:50.864Z,0
2023-05-05T01:47:07.796Z,0
2023-05-05T01:48:24.798Z,0
2023-05-05T01:49:41.761Z,0.09
2023-05-05T01:50:58.898Z,0
2023-05-05T01:52:15.774Z,0
2023-05-05T01:53:32.779Z,0
2023-05-05T01:54:49.798Z,0
2023-05-05T01:56:06.862Z,0
2023-05-05T01:57:23.777Z,0
2023-05-05T01:58:40.786Z,0
2023-05-05T01:59:57.801Z,0
2023-05-05T02:01:14.842Z,0
2023-05-05T02:02:31.924Z,0
2023-05-05T02:03:48.816Z,0
2023-05-05T02:05:05.800Z,0
2023-05-05T02:06:23.369Z,0.08
2023-05-05T02:07:39.802Z,0
2023-05-05T02:08:56.834Z,0
2023-05-05T02:10:13.801Z,0
2023-05-05T02:11:30.855Z,0
2023-05-05T02:12:47.874Z,0
2023-05-05T02:14:04.813Z,0
2023-05-05T02:15:21.828Z,0.31
2023-05-05T02:16:38.862Z,0
2023-05-05T02:17:55.855Z,0.22
2023-05-05T02:19:12.942Z,0
2023-05-05T02:20:29.921Z,0
2023-05-05T02:21:47.036Z,0
2023-05-05T02:23:03.920Z,0.13
2023-05-05T02:24:20.913Z,0.23
2023-05-05T02:25:37.839Z,0
2023-05-05T02:26:54.868Z,0
2023-05-05T02:28:11.873Z,0.11
2023-05-05T02:29:28.856Z,0.13
2023-05-05T02:30:45.940Z,0.17
2023-05-05T02:32:02.905Z,0
2023-05-05T02:33:19.837Z,0
2023-05-05T02:34:36.923Z,0
2023-05-05T02:35:53.887Z,0
2023-05-05T02:37:10.889Z,0
2023-05-05T02:38:27.832Z,0
2023-05-05T02:39:44.865Z,0
2023-05-05T02:41:01.860Z,0
2023-05-05T02:42:18.838Z,0
2023-05-05T02:43:35.931Z,0.08
2023-05-05T02:44:52.902Z,0
2023-05-05T02:46:09.905Z,0
2023-05-05T02:47:26.886Z,0
2023-05-05T02:48:43.862Z,0
2023-05-05T02:50:00.914Z,0
2023-05-05T02:51:17.901Z,0
2023-05-05T02:52:34.857Z,0
2023-05-05T02:53:51.856Z,0
2023-05-05T02:55:08.877Z,0
2023-05-05T02:56:25.886Z,0
2023-05-05T02:57:42.862Z,0
2023-05-05T02:58:59.867Z,0
2023-05-05T03:00:16.900Z,0
2023-05-05T03:01:33.932Z,0.08
2023-05-05T03:02:51.013Z,0
2023-05-05T03:04:07.891Z,0
2023-05-05T03:05:24.954Z,0
2023-05-05T03:06:41.959Z,0
2023-05-05T03:07:58.896Z,0.11
2023-05-05T03:09:15.922Z,0
2023-05-05T03:10:32.900Z,0.21
2023-05-05T03:11:49.959Z,0.07
2023-05-05T03:13:06.967Z,0.19
2023-05-05T03:14:23.900Z,0
2023-05-05T03:15:40.896Z,0
2023-05-05T03:16:57.967Z,0
2023-05-05T03:18:14.895Z,0.13
2023-05-05T03:19:31.923Z,0
2023-05-05T03:20:48.951Z,0
2023-05-05T03:22:05.960Z,0
2023-05-05T03:23:23.021Z,0
2023-05-05T03:24:39.913Z,0
2023-05-05T03:25:57.530Z,0
2023-05-05T03:27:15.023Z,0
2023-05-05T03:28:31.924Z,0
2023-05-05T03:29:48.906Z,0.26
2023-05-05T03:31:05.950Z,0
2023-05-05T03:32:22.948Z,0
2023-05-05T03:33:39.921Z,0
2023-05-05T03:34:56.961Z,0
2023-05-05T03:36:13.943Z,0
2023-05-05T03:37:31.019Z,0
2023-05-05T03:38:47.987Z,0
2023-05-05T03:40:05.069Z,0
2023-05-05T03:41:21.950Z,0
2023-05-05T03:42:38.927Z,0.2
2023-05-05T03:43:55.934Z,0.23
2023-05-05T03:45:12.962Z,0.25
2023-05-05T03:46:29.941Z,0.18
2023-05-05T03:47:47.029Z,0.21
2023-05-05T03:49:03.954Z,0.16
2023-05-05T03:50:20.978Z,0
2023-05-05T03:51:37.965Z,0
2023-05-05T03:52:54.941Z,0
2023-05-05T03:54:11.960Z,0
2023-05-05T03:55:28.972Z,0
2023-05-05T03:56:45.946Z,0
2023-05-05T03:58:02.981Z,0.38
2023-05-05T03:59:19.964Z,0.3
2023-05-05T04:00:36.967Z,0.31
2023-05-05T04:01:54.066Z,0.4
2023-05-05T04:03:11.205Z,0.3
2023-05-05T04:04:28.001Z,0.36
2023-05-05T04:05:44.986Z,0.31
2023-05-05T04:07:02.049Z,0.29
2023-05-05T04:08:19.089Z,0.34
2023-05-05T04:09:35.979Z,0.21
2023-05-05T04:10:53.016Z,0.32
2023-05-05T04:12:10.010Z,0.25
2023-05-05T04:13:26.969Z,0.51
2023-05-05T04:14:44.053Z,0.2
2023-05-05T04:16:01.075Z,0.19
2023-05-05T04:17:18.038Z,0.19
2023-05-05T04:18:34.988Z,0.25
2023-05-05T04:19:51.996Z,0.19
2023-05-05T04:21:09.040Z,0.23
2023-05-05T04:22:26.072Z,0.17
2023-05-05T04:23:42.986Z,0.15
2023-05-05T04:25:00.001Z,0.24
2023-05-05T04:26:17.102Z,0.26
2023-05-05T04:27:34.046Z,0.19
2023-05-05T04:28:51.033Z,0.21
2023-05-05T04:30:08.201Z,0.19
2023-05-05T04:31:25.092Z,0
2023-05-05T04:32:42.098Z,0.18
2023-05-05T04:33:59.129Z,0
2023-05-05T04:35:16.118Z,0
2023-05-05T04:36:33.017Z,0
2023-05-05T04:37:50.087Z,0.13
2023-05-05T04:39:07.274Z,0
2023-05-05T04:40:24.047Z,0
2023-05-05T04:41:41.108Z,0
2023-05-05T04:42:58.084Z,0
2023-05-05T04:44:15.041Z,0
2023-05-05T04:45:32.076Z,0
2023-05-05T04:46:49.187Z,0
2023-05-05T04:48:06.155Z,0
2023-05-05T04:49:23.027Z,0
2023-05-05T04:50:40.040Z,0
2023-05-05T04:51:57.102Z,0
2023-05-05T04:53:14.099Z,0
2023-05-05T04:54:31.048Z,0.19
2023-05-05T04:55:48.040Z,0.22
2023-05-05T04:57:05.060Z,0.08
2023-05-05T04:58:22.074Z,0.1
2023-05-05T04:59:39.056Z,0.08
2023-05-05T05:00:56.728Z,0.32
2023-05-05T05:02:14.193Z,0.54
2023-05-05T05:03:31.185Z,0.37
2023-05-05T05:04:48.054Z,0.68
2023-05-05T05:06:05.109Z,0.53
2023-05-05T05:07:22.094Z,0.64
2023-05-05T05:08:39.093Z,1.04
2023-05-05T05:09:56.065Z,0.91
2023-05-05T05:11:13.087Z,1.11
2023-05-05T05:12:30.106Z,0.73
2023-05-05T05:13:47.081Z,1.11
2023-05-05T05:15:04.152Z,1.17
2023-05-05T05:16:21.213Z,1.25
2023-05-05T05:17:38.095Z,1.52
2023-05-05T05:18:55.094Z,0.95
2023-05-05T05:20:12.089Z,1.24
2023-05-05T05:21:29.134Z,1.8
2023-05-05T05:22:46.111Z,1.56
2023-05-05T05:24:03.124Z,0.66
2023-05-05T05:25:20.088Z,0.8
2023-05-05T05:26:37.103Z,1.08
2023-05-05T05:28:06.023Z,0.86
2023-05-05T05:29:11.116Z,0.47
2023-05-05T05:30:28.123Z,0.87
2023-05-05T05:31:45.142Z,0.9
2023-05-05T05:33:02.257Z,1.22
2023-05-05T05:34:19.107Z,1.12
2023-05-05T05:35:36.118Z,1.4
2023-05-05T05:36:53.111Z,1.35
2023-05-05T05:38:10.115Z,0.81
2023-05-05T05:39:27.153Z,1.48
2023-05-05T05:40:44.127Z,0.61
2023-05-05T05:42:01.157Z,1.26
2023-05-05T05:43:18.103Z,1.01
2023-05-05T05:44:35.120Z,0.48
2023-05-05T05:45:52.263Z,1.24
2023-05-05T05:47:09.147Z,1.38
2023-05-05T05:48:26.146Z,1
2023-05-05T05:49:43.199Z,1.65
2023-05-05T05:51:00.169Z,1.2
2023-05-05T05:52:17.145Z,1.34
2023-05-05T05:53:34.123Z,1.19
2023-05-05T05:54:51.191Z,1.3
2023-05-05T05:56:08.156Z,1.28
2023-05-05T05:57:25.127Z,0.98
2023-05-05T05:58:42.123Z,1.17
2023-05-05T06:00:01.120Z,1.57
2023-05-05T06:01:16.175Z,2.26
2023-05-05T06:02:33.244Z,0.73
2023-05-05T06:03:50.202Z,0.62
2023-05-05T06:05:07.150Z,1.28
2023-05-05T06:06:24.226Z,0.39
2023-05-05T06:07:41.164Z,0.7
2023-05-05T06:08:58.154Z,1.08
2023-05-05T06:10:27.105Z,0.73
2023-05-05T06:11:32.247Z,0.83
2023-05-05T06:12:49.249Z,1.58
2023-05-05T06:14:06.149Z,1.43
2023-05-05T06:15:23.155Z,1.63
2023-05-05T06:16:40.174Z,1.47
2023-05-05T06:17:57.315Z,0.62
2023-05-05T06:19:15.010Z,1.11
2023-05-05T06:20:32.196Z,2.38
2023-05-05T06:21:49.729Z,2.71
2023-05-05T06:23:06.247Z,1.59
2023-05-05T06:24:23.235Z,1.24
2023-05-05T06:25:40.206Z,1.08
2023-05-05T06:26:57.174Z,0.42
2023-05-05T06:28:14.172Z,0.62
2023-05-05T06:29:31.950Z,2.71
2023-05-05T06:30:49.196Z,2.76
2023-05-05T06:32:06.322Z,1.83
2023-05-05T06:33:23.171Z,1.73
2023-05-05T06:34:40.856Z,0.96
2023-05-05T06:35:58.198Z,1.59
2023-05-05T06:37:15.172Z,1.69
2023-05-05T06:38:32.221Z,1.53
2023-05-05T06:39:49.189Z,1.47
2023-05-05T06:41:06.289Z,2.54
2023-05-05T06:42:23.192Z,1.74
2023-05-05T06:43:40.209Z,1.89
2023-05-05T06:44:57.209Z,1.86
2023-05-05T06:46:14.301Z,1.57
2023-05-05T06:47:31.240Z,0.98
2023-05-05T06:48:48.202Z,0.88
2023-05-05T06:50:05.390Z,1.71
2023-05-05T06:51:22.316Z,1.09
2023-05-05T06:52:39.219Z,1.03
2023-05-05T06:53:56.224Z,0.33
2023-05-05T06:55:13.226Z,0.82
2023-05-05T06:56:30.572Z,0.53
2023-05-05T06:57:47.305Z,0.51
2023-05-05T06:59:04.235Z,1.23
2023-05-05T07:00:21.244Z,1.03
2023-05-05T07:01:38.278Z,0.82
2023-05-05T07:02:55.278Z,0.87
2023-05-05T07:04:12.285Z,1.6
2023-05-05T07:05:29.302Z,1.28
2023-05-05T07:06:46.277Z,0.78
2023-05-05T07:08:03.277Z,0.97
2023-05-05T07:09:20.257Z,0.32
2023-05-05T07:10:38.016Z,1.72
2023-05-05T07:11:55.393Z,2.23
2023-05-05T07:13:12.395Z,1.53
2023-05-05T07:14:29.279Z,1.45
2023-05-05T07:15:46.401Z,1.26
2023-05-05T07:17:03.279Z,0.89
2023-05-05T07:18:20.334Z,1.85
2023-05-05T07:19:37.257Z,1.64
2023-05-05T07:20:54.503Z,1.01
2023-05-05T07:22:11.261Z,2.43
2023-05-05T07:23:28.326Z,2.12
2023-05-05T07:24:45.309Z,0.98
2023-05-05T07:26:02.291Z,0.69
2023-05-05T07:27:19.441Z,1.09
2023-05-05T07:28:36.293Z,0.48
2023-05-05T07:29:53.287Z,1.17
2023-05-05T07:31:10.293Z,0.98
2023-05-05T07:32:27.320Z,1.32
2023-05-05T07:33:44.277Z,1.06
2023-05-05T07:35:01.269Z,2.32
2023-05-05T07:36:18.492Z,1.38
2023-05-05T07:37:35.306Z,1.32
2023-05-05T07:38:52.279Z,1.05
2023-05-05T07:40:09.686Z,1.52
2023-05-05T07:41:26.425Z,1.9
2023-05-05T07:42:43.660Z,1.03
2023-05-05T07:44:00.349Z,1.39
2023-05-05T07:45:17.366Z,1.61
2023-05-05T07:46:34.410Z,1.46
2023-05-05T07:47:51.376Z,1.16
2023-05-05T07:49:08.588Z,1.61
2023-05-05T07:50:25.305Z,2.38
2023-05-05T07:51:42.445Z,2.1
2023-05-05T07:53:10.467Z,1.14
2023-05-05T07:54:16.442Z,1.13
2023-05-05T07:55:33.344Z,1.18
2023-05-05T07:56:50.311Z,1.64
2023-05-05T07:58:07.468Z,1.74
2023-05-05T07:59:24.770Z,1
2023-05-05T08:00:41.463Z,0.59
2023-05-05T08:01:58.348Z,1.74
2023-05-05T08:03:15.558Z,1.84
2023-05-05T08:04:32.507Z,0.85
2023-05-05T08:05:51.253Z,1.84
2023-05-05T08:07:06.546Z,1.8
2023-05-05T08:08:23.403Z,0.97
2023-05-05T08:09:40.496Z,1.19
2023-05-05T08:10:57.352Z,2.13
2023-05-05T08:12:14.372Z,1.93
2023-05-05T08:13:31.724Z,1.36
2023-05-05T08:14:48.396Z,1.33
2023-05-05T08:16:05.549Z,0.64
2023-05-05T08:17:22.380Z,1.39
2023-05-05T08:18:39.428Z,2.11
2023-05-05T08:19:56.389Z,2.15
2023-05-05T08:21:13.849Z,1.13
2023-05-05T08:22:30.364Z,1.42
2023-05-05T08:23:47.438Z,2.1
2023-05-05T08:25:04.391Z,1.26
2023-05-05T08:26:21.441Z,1.74
2023-05-05T08:27:38.704Z,1.46
2023-05-05T08:28:55.660Z,2.42
2023-05-05T08:30:12.460Z,2.28
2023-05-05T08:31:29.588Z,2.64
2023-05-05T08:32:46.463Z,2.14
2023-05-05T08:34:03.445Z,1.64
2023-05-05T08:35:20.402Z,1.27
2023-05-05T08:36:37.464Z,1.94
2023-05-05T08:37:55.481Z,1.09
2023-05-05T08:39:11.420Z,2.54
2023-05-05T08:40:28.453Z,4.27
2023-05-05T08:41:45.717Z,3.92
2023-05-05T08:43:03.453Z,2.79
2023-05-05T08:44:21.312Z,3.52
2023-05-05T08:45:37.463Z,3.73
2023-05-05T08:46:54.423Z,3.51
2023-05-05T08:48:11.596Z,3.61
2023-05-05T08:49:28.708Z,2.99
2023-05-05T08:50:45.693Z,2.99
2023-05-05T08:52:02.415Z,2.62
2023-05-05T08:53:19.450Z,2.12
2023-05-05T08:54:36.464Z,2.53
2023-05-05T08:55:53.526Z,2.21
2023-05-05T08:57:10.626Z,2.61
2023-05-05T08:58:29.004Z,2.15
2023-05-05T08:59:44.464Z,1.56
2023-05-05T09:01:01.520Z,1.71
2023-05-05T09:02:18.467Z,2.18
2023-05-05T09:03:35.569Z,2.28
2023-05-05T09:04:52.439Z,2.24
2023-05-05T09:06:09.447Z,1.48
2023-05-05T09:07:26.466Z,1.34
2023-05-05T09:08:43.466Z,1
2023-05-05T09:10:00.465Z,1.3
2023-05-05T09:11:17.443Z,1.56
2023-05-05T09:12:34.449Z,1.23
2023-05-05T09:15:37.452Z,1.79
2023-05-05T09:16:54.479Z,1.6
2023-05-05T09:18:11.559Z,1.79
2023-05-05T09:19:28.503Z,2.32
2023-05-05T09:20:45.478Z,2.85
2023-05-05T09:22:02.486Z,0.95
2023-05-05T09:23:19.457Z,1.57
2023-05-05T09:24:36.513Z,2.81
2023-05-05T09:25:53.497Z,2.34
2023-05-05T09:27:10.640Z,1.34
2023-05-05T09:28:27.483Z,2.17
2023-05-05T09:29:44.493Z,2.12
2023-05-05T09:31:01.581Z,2.44
2023-05-05T09:32:18.502Z,1.47
2023-05-05T09:33:35.484Z,1.43
2023-05-05T09:34:52.507Z,1.8
2023-05-05T09:36:09.664Z,1.75
2023-05-05T09:37:26.490Z,1.8
2023-05-05T09:38:43.497Z,2.14
2023-05-05T09:40:00.515Z,1.17
2023-05-05T09:41:17.543Z,0.48
2023-05-05T09:42:34.505Z,2.31
2023-05-05T09:43:51.591Z,1.38
2023-05-05T09:45:08.635Z,1.72
2023-05-05T09:46:25.651Z,1.05
2023-05-05T09:47:42.646Z,1.66
2023-05-05T09:48:59.551Z,0.61
2023-05-05T09:50:16.544Z,0.73
2023-05-05T09:51:33.509Z,1.36
2023-05-05T09:52:50.540Z,1.48
2023-05-05T09:54:07.549Z,1.25
2023-05-05T09:55:24.532Z,1.85
2023-05-05T09:56:41.563Z,1.81
2023-05-05T09:57:58.550Z,2.29
2023-05-05T09:59:15.525Z,2.32
2023-05-05T10:00:32.544Z,1.52
2023-05-05T10:01:49.704Z,1.42
2023-05-05T10:03:06.772Z,1.52
2023-05-05T10:04:23.592Z,2.52
2023-05-05T10:05:40.568Z,2.01
2023-05-05T10:06:57.537Z,2.35
2023-05-05T10:08:14.581Z,2.14
2023-05-05T10:09:31.559Z,2.37
2023-05-05T10:10:48.597Z,1.55
2023-05-05T10:12:05.565Z,1.93
2023-05-05T10:13:22.539Z,1.44
2023-05-05T10:14:39.587Z,0.69
2023-05-05T10:15:57.605Z,0.27
2023-05-05T10:17:14.680Z,0.96
2023-05-05T10:18:31.627Z,1.48
2023-05-05T10:19:48.569Z,0.94
2023-05-05T10:21:05.631Z,2
2023-05-05T10:22:22.617Z,1.97
2023-05-05T10:23:39.568Z,1.81
2023-05-05T10:24:56.586Z,1.77
2023-05-05T10:26:13.621Z,1.48
2023-05-05T10:27:30.622Z,1.46
2023-05-05T10:28:47.631Z,2.19
2023-05-05T10:30:04.711Z,1.51
2023-05-05T10:31:25.574Z,1.35
2023-05-05T10:33:55.845Z,1.47
2023-05-05T10:35:12.610Z,1.48
2023-05-05T10:36:29.656Z,1.44
2023-05-05T10:37:46.644Z,0.99
2023-05-05T10:39:03.657Z,1.18
2023-05-05T10:40:20.637Z,1.11
2023-05-05T10:41:37.755Z,1.44
2023-05-05T10:42:54.615Z,1
2023-05-05T10:44:11.813Z,1.73
2023-05-05T10:45:28.716Z,1.33
2023-05-05T10:46:45.777Z,1.86
2023-05-05T10:48:02.828Z,0.97
2023-05-05T10:49:19.655Z,0.96
2023-05-05T10:50:36.682Z,0.44
2023-05-05T10:51:53.674Z,1.69
2023-05-05T10:53:10.739Z,2.04
2023-05-05T10:54:27.692Z,1.85
2023-05-05T10:55:44.641Z,1.65
2023-05-05T10:57:01.743Z,1.5
2023-05-05T10:58:18.640Z,0.79
2023-05-05T10:59:35.683Z,0.95
2023-05-05T11:00:52.799Z,0.9
2023-05-05T11:02:09.723Z,1.53
2023-05-05T11:03:27.021Z,0.69
2023-05-05T11:04:43.691Z,2.03
2023-05-05T11:06:00.656Z,1.85
2023-05-05T11:07:17.769Z,2.19
2023-05-05T11:08:34.783Z,1.17
2023-05-05T11:09:51.655Z,0.92
2023-05-05T11:11:08.673Z,2
2023-05-05T11:12:25.745Z,1.22
2023-05-05T11:13:42.731Z,0.71
2023-05-05T11:14:59.681Z,0.74
2023-05-05T11:16:16.703Z,0.64
2023-05-05T11:17:33.832Z,1.03
2023-05-05T11:18:50.737Z,0.51
2023-05-05T11:20:07.866Z,1.14
2023-05-05T11:21:24.707Z,0.7
2023-05-05T11:22:41.724Z,0.78
2023-05-05T11:23:58.803Z,0.84
2023-05-05T11:25:15.694Z,0.51
2023-05-05T11:26:32.694Z,0.74
2023-05-05T11:27:49.702Z,0.6
2023-05-05T11:29:06.754Z,0.75
2023-05-05T11:30:23.122Z,0.54
2023-05-05T11:31:39.157Z,0.32
2023-05-05T11:32:55.224Z,0.59
2023-05-05T11:34:11.266Z,0.5
2023-05-05T11:35:27.723Z,0.6
2023-05-05T11:36:44.751Z,0.86
2023-05-05T11:38:01.785Z,0.52
2023-05-05T11:39:18.158Z,0.22
2023-05-05T11:40:34.752Z,0.66
2023-05-05T11:41:51.733Z,0.88
2023-05-05T11:43:08.773Z,0.41
2023-05-05T11:44:25.104Z,0.38
2023-05-05T11:45:41.727Z,0.65
2023-05-05T11:47:01.580Z,0.87
2023-05-05T11:48:18.636Z,0.45
2023-05-05T11:49:35.994Z,1.15
2023-05-05T11:50:52.766Z,1.55
2023-05-05T11:52:09.791Z,0.49
2023-05-05T11:53:26.155Z,0.5
2023-05-05T11:54:42.210Z,0.36
2023-05-05T11:55:58.810Z,0.53
2023-05-05T11:57:15.104Z,0.6
2023-05-05T11:58:31.772Z,1.42
2023-05-05T11:59:49.591Z,0.79
2023-05-05T12:01:05.804Z,0.88
2023-05-05T12:02:22.839Z,0.7
2023-05-05T12:03:39.861Z,0.64
2023-05-05T12:04:56.947Z,0.73
2023-05-05T12:06:13.203Z,0
2023-05-05T12:07:29.159Z,0.22
2023-05-05T12:08:45.784Z,0.67
2023-05-05T12:10:02.773Z,0.5
2023-05-05T12:11:19.880Z,0.5
2023-05-05T12:12:36.869Z,0.47
2023-05-05T12:13:53.782Z,0.54
2023-05-05T12:15:10.801Z,0.55
2023-05-05T12:16:27.887Z,0.7
2023-05-05T12:17:45.082Z,0.65
2023-05-05T12:19:01.806Z,0.57
2023-05-05T12:20:19.128Z,0.84
2023-05-05T12:21:36.005Z,0.78
2023-05-05T12:22:52.828Z,0.41
2023-05-05T12:24:09.790Z,0.25
2023-05-05T12:25:26.825Z,0.49
2023-05-05T12:26:43.834Z,0.34
2023-05-05T12:28:00.771Z,0.23
2023-05-05T12:29:17.838Z,0.37
2023-05-05T12:30:34.821Z,0.59
2023-05-05T12:31:51.948Z,0.34
2023-05-05T12:33:08.826Z,0.34
2023-05-05T12:34:25.815Z,0.78
2023-05-05T12:35:43.001Z,0.35
2023-05-05T12:36:59.825Z,0.7
2023-05-05T12:38:16.804Z,0.39
2023-05-05T12:39:33.809Z,0.71
2023-05-05T12:40:50.232Z,0.27
2023-05-05T12:42:06.865Z,0.56
2023-05-05T12:43:23.819Z,0.86
2023-05-05T12:44:40.899Z,0.99
2023-05-05T12:45:57.863Z,1.18
2023-05-05T12:47:14.873Z,1.08
2023-05-05T12:48:31.847Z,0.64
2023-05-05T12:49:48.886Z,0.67
2023-05-05T12:51:05.869Z,0.56
2023-05-05T12:52:22.889Z,0.29
2023-05-05T12:53:39.232Z,0.34
2023-05-05T12:54:55.265Z,0.63
2023-05-05T12:56:11.235Z,0.69
2023-05-05T12:57:27.873Z,0.71
2023-05-05T12:58:44.846Z,1.14
2023-05-05T13:00:01.884Z,2.17
2023-05-05T13:01:18.956Z,0.9
2023-05-05T13:02:35.400Z,0.25
2023-05-05T13:03:51.236Z,0.56
2023-05-05T13:05:08.040Z,0.79
2023-05-05T13:06:24.982Z,0.85
2023-05-05T13:07:41.279Z,0.49
2023-05-05T13:08:57.242Z,0.34
2023-05-05T13:10:13.241Z,0.61
2023-05-05T13:11:29.257Z,0.44
2023-05-05T13:12:45.327Z,0.31
2023-05-05T13:14:01.256Z,0.41
2023-05-05T13:15:17.267Z,0.34
2023-05-05T13:16:33.276Z,0.41
2023-05-05T13:17:49.985Z,0.67
2023-05-05T13:19:06.549Z,0.37
2023-05-05T13:20:23.329Z,0.41
2023-05-05T13:21:39.916Z,0.48
2023-05-05T13:22:56.940Z,0.57
2023-05-05T13:24:25.849Z,0.4
2023-05-05T13:25:29.914Z,0.89
2023-05-05T13:26:46.926Z,0.96
2023-05-05T13:28:03.967Z,0.44
2023-05-05T13:29:20.953Z,0.84
2023-05-05T13:30:37.973Z,0.93
2023-05-05T13:31:54.889Z,0.37
2023-05-05T13:33:11.955Z,0.35
2023-05-05T13:34:28.335Z,0.24
2023-05-05T13:35:44.916Z,0.44
2023-05-05T13:37:02.022Z,0.41
2023-05-05T13:38:18.976Z,0.73
2023-05-05T13:39:35.975Z,0.79
2023-05-05T13:40:52.926Z,0.71
2023-05-05T13:42:09.994Z,1.3
2023-05-05T13:43:30.072Z,0.62
2023-05-05T13:44:43.940Z,0.82
2023-05-05T13:46:12.474Z,1.99
2023-05-05T13:47:18.003Z,1.94
2023-05-05T13:48:34.962Z,1.28
2023-05-05T13:49:51.948Z,1.07
2023-05-05T13:51:09.026Z,2.1
2023-05-05T13:52:26.207Z,1.33
2023-05-05T13:53:43.008Z,0.82
2023-05-05T13:54:59.949Z,0.76
2023-05-05T13:56:16.979Z,0.63
2023-05-05T13:57:33.982Z,0.37
2023-05-05T13:58:51.073Z,0.37
2023-05-05T14:00:08.045Z,0.58
2023-05-05T14:01:25.046Z,0.34
2023-05-05T14:02:42.122Z,0.59
2023-05-05T14:03:59.002Z,0.74
2023-05-05T14:05:16.056Z,0.62
2023-05-05T14:06:33.028Z,0.61
2023-05-05T14:07:50.110Z,0.21
2023-05-05T14:09:06.988Z,0.34
2023-05-05T14:10:23.964Z,0.26
2023-05-05T14:11:41.018Z,0.32
2023-05-05T14:12:58.624Z,0.32
2023-05-05T14:14:15.029Z,0.57
2023-05-05T14:15:32.473Z,0.8
2023-05-05T14:16:50.280Z,0.68
2023-05-05T14:18:06.060Z,0.35
2023-05-05T14:19:23.041Z,0.58
2023-05-05T14:20:40.003Z,0.55
2023-05-05T14:21:57.010Z,0.44
2023-05-05T14:23:14.081Z,0.66
2023-05-05T14:24:31.091Z,0.57
2023-05-05T14:25:48.005Z,0.7
2023-05-05T14:27:05.070Z,0.56
2023-05-05T14:28:22.126Z,0.64
2023-05-05T14:29:39.023Z,0.82
2023-05-05T14:30:56.084Z,0.81
2023-05-05T14:32:13.100Z,1.42
2023-05-05T14:33:30.088Z,1.36
2023-05-05T14:34:48.994Z,0.81
2023-05-05T14:36:04.108Z,0.4
2023-05-05T14:37:21.017Z,1
2023-05-05T14:38:38.081Z,0.38
2023-05-05T14:39:55.043Z,0.45
2023-05-05T14:41:12.085Z,0.69
2023-05-05T14:42:30.092Z,1.43
2023-05-05T14:43:47.091Z,0.5
2023-05-05T14:45:04.070Z,0.84
2023-05-05T14:46:21.084Z,0.66
2023-05-05T14:47:38.083Z,1.15
2023-05-05T14:48:55.097Z,0.86
2023-05-05T14:50:12.087Z,0.68
2023-05-05T14:51:29.121Z,0.61
2023-05-05T14:52:46.065Z,0.29
2023-05-05T14:54:03.862Z,0.7
2023-05-05T14:55:20.100Z,1.73
2023-05-05T14:56:37.118Z,2.29
2023-05-05T14:57:54.072Z,0.8
2023-05-05T14:59:11.084Z,0.52
2023-05-05T15:00:28.134Z,0.79
2023-05-05T15:01:45.168Z,0.38
2023-05-05T15:03:02.164Z,0.43
2023-05-05T15:04:19.156Z,0.48
2023-05-05T15:05:36.095Z,0.53
2023-05-05T15:06:53.086Z,0.39
2023-05-05T15:08:10.101Z,0.9
2023-05-05T15:09:27.129Z,1.01
2023-05-05T15:10:44.150Z,0.89
2023-05-05T15:12:01.117Z,0.28
2023-05-05T15:13:18.111Z,0.58
2023-05-05T15:14:35.170Z,0.75
2023-05-05T15:15:52.193Z,0.61
2023-05-05T15:17:09.117Z,0.46
2023-05-05T15:18:26.107Z,0.64
2023-05-05T15:19:43.147Z,0.6
2023-05-05T15:21:00.144Z,0.64
2023-05-05T15:22:17.123Z,1.45
2023-05-05T15:23:34.301Z,0.64
2023-05-05T15:24:51.231Z,0.55
2023-05-05T15:26:08.210Z,1.33
2023-05-05T15:27:25.143Z,1.16
2023-05-05T15:28:42.123Z,1.07
2023-05-05T15:29:59.208Z,1.12
2023-05-05T15:31:16.197Z,1.01
2023-05-05T15:32:33.169Z,1.21
2023-05-05T15:33:50.136Z,1.55
2023-05-05T15:35:07.334Z,1.22
2023-05-05T15:36:24.168Z,0.66
2023-05-05T15:37:41.129Z,1.19
2023-05-05T15:38:58.139Z,1.48
2023-05-05T15:40:15.456Z,1.33
2023-05-05T15:41:32.210Z,0.63
2023-05-05T15:42:49.150Z,1.32
2023-05-05T15:44:06.157Z,0.25
2023-05-05T15:45:23.130Z,0.92
2023-05-05T15:46:40.228Z,0.83
2023-05-05T15:47:57.214Z,1.12
2023-05-05T15:49:14.161Z,1.02
2023-05-05T15:50:31.152Z,0.56
2023-05-05T15:51:48.245Z,0.43
2023-05-05T15:53:05.212Z,0.59
2023-05-05T15:54:22.253Z,2.06
2023-05-05T15:55:39.420Z,1.93
2023-05-05T15:56:56.793Z,0.96
2023-05-05T15:58:14.211Z,0.98
2023-05-05T15:59:31.166Z,0.48
2023-05-05T16:00:48.245Z,1.24
2023-05-05T16:02:05.301Z,1.03
2023-05-05T16:03:22.262Z,1.44
2023-05-05T16:04:39.209Z,0.84
2023-05-05T16:05:56.219Z,0.98
2023-05-05T16:07:13.194Z,0.68
2023-05-05T16:08:30.324Z,0.52
2023-05-05T16:09:47.208Z,0.41
2023-05-05T16:11:04.390Z,0.57
2023-05-05T16:12:21.255Z,0.35
2023-05-05T16:13:38.315Z,0.52
2023-05-05T16:14:55.241Z,0.52
2023-05-05T16:16:12.235Z,0.88
2023-05-05T16:17:29.800Z,0.98
2023-05-05T16:18:47.308Z,1.06
2023-05-05T16:20:04.269Z,0.9
2023-05-05T16:21:21.416Z,0.95
2023-05-05T16:22:38.276Z,0.83
2023-05-05T16:23:55.251Z,0.69
2023-05-05T16:25:12.303Z,1.16
2023-05-05T16:26:29.599Z,0.74
2023-05-05T16:27:46.296Z,0.69
2023-05-05T16:29:03.359Z,0.74
2023-05-05T16:30:20.276Z,0.59
2023-05-05T16:31:37.329Z,0.79
2023-05-05T16:32:54.297Z,0.53
2023-05-05T16:34:11.258Z,0.53
2023-05-05T16:35:28.287Z,0.61
2023-05-05T16:36:45.287Z,0.72
2023-05-05T16:38:02.513Z,0.71
2023-05-05T16:39:22.750Z,1.24
2023-05-05T16:40:37.483Z,0.84
2023-05-05T16:41:54.357Z,0.78
2023-05-05T16:43:11.360Z,0.84
2023-05-05T16:44:28.283Z,0.82
2023-05-05T16:45:45.280Z,1
2023-05-05T16:47:02.289Z,0.94
2023-05-05T16:48:19.289Z,0.87
2023-05-05T16:49:36.383Z,0.63
2023-05-05T16:50:53.305Z,0.25
2023-05-05T16:52:10.255Z,1.01
2023-05-05T16:53:27.290Z,1.1
2023-05-05T16:54:44.330Z,0.63
2023-05-05T16:56:01.278Z,0.69
2023-05-05T16:57:18.441Z,0.63
2023-05-05T16:58:35.296Z,0.79
2023-05-05T16:59:52.317Z,1.03
2023-05-05T17:01:09.366Z,0.71
2023-05-05T17:02:26.378Z,0.82
2023-05-05T17:03:43.286Z,0.59
2023-05-05T17:05:00.346Z,0.53
2023-05-05T17:06:17.310Z,0.66
2023-05-05T17:07:34.408Z,0.48
2023-05-05T17:08:51.309Z,1.05
2023-05-05T17:10:08.292Z,1.02
2023-05-05T17:11:25.311Z,0.36
2023-05-05T17:12:42.474Z,0.64
2023-05-05T17:13:59.305Z,0.45
2023-05-05T17:15:16.295Z,0.81
2023-05-05T17:16:33.685Z,1.01
2023-05-05T17:17:50.375Z,0.8
2023-05-05T17:19:07.414Z,0.72
2023-05-05T17:20:24.340Z,0.62
2023-05-05T17:21:41.354Z,0.63
2023-05-05T17:22:58.324Z,1.12
2023-05-05T17:24:15.324Z,0.87
2023-05-05T17:25:32.328Z,0.73
2023-05-05T17:26:49.458Z,0.86
2023-05-05T17:28:06.491Z,0.3
2023-05-05T17:29:23.380Z,0.43
2023-05-05T17:30:40.344Z,0.64
2023-05-05T17:31:57.406Z,0.5
2023-05-05T17:33:14.371Z,0.73